sensor_id;sensor_type;location;lat;lon;timestamp;temperature;humidity
25112;DHT22;13092;51.996;4.458;2023-03-19T00:01:27;12.70;99.90
25112;DHT22;13092;51.996;4.458;2023-03-19T00:03:56;12.60;99.90
25112;DHT22;13092;51.996;4.458;2023-03-19T00:06:31;12.60;99.90
25112;DHT22;13092;51.996;4.458;2023-03-19T00:09:03;12.70;99.90
25112;DHT22;13092;51.996;4.458;2023-03-19T00:11:32;12.60;99.90
25112;DHT22;13092;51.996;4.458;2023-03-19T00:14:07;12.60;99.90
25112;DHT22;13092;51.996;4.458;2023-03-19T00:16:35;12.60;99.90
25112;DHT22;13092;51.996;4.458;2023-03-19T00:19:04;12.50;99.90
25112;DHT22;13092;51.996;4.458;2023-03-19T00:21:38;12.50;99.90
25112;DHT22;13092;51.996;4.458;2023-03-19T00:24:09;12.40;99.90
25112;DHT22;13092;51.996;4.458;2023-03-19T00:26:40;12.30;99.90
25112;DHT22;13092;51.996;4.458;2023-03-19T00:29:08;12.40;99.90
25112;DHT22;13092;51.996;4.458;2023-03-19T00:31:39;12.40;99.90
25112;DHT22;13092;51.996;4.458;2023-03-19T00:34:07;12.40;99.90
25112;DHT22;13092;51.996;4.458;2023-03-19T00:36:36;12.40;99.90
25112;DHT22;13092;51.996;4.458;2023-03-19T00:39:05;12.40;99.90
25112;DHT22;13092;51.996;4.458;2023-03-19T00:41:33;12.30;99.90
25112;DHT22;13092;51.996;4.458;2023-03-19T00:44:06;12.30;99.90
25112;DHT22;13092;51.996;4.458;2023-03-19T00:46:34;12.20;99.90
25112;DHT22;13092;51.996;4.458;2023-03-19T00:49:02;12.10;99.90
25112;DHT22;13092;51.996;4.458;2023-03-19T00:51:34;12.10;99.90
25112;DHT22;13092;51.996;4.458;2023-03-19T00:54:02;12.10;99.90
25112;DHT22;13092;51.996;4.458;2023-03-19T00:56:33;12.00;99.90
25112;DHT22;13092;51.996;4.458;2023-03-19T00:59:03;11.90;99.90
25112;DHT22;13092;51.996;4.458;2023-03-19T01:01:36;11.80;99.90
25112;DHT22;13092;51.996;4.458;2023-03-19T01:04:05;11.70;99.90
25112;DHT22;13092;51.996;4.458;2023-03-19T01:06:33;11.70;99.90
25112;DHT22;13092;51.996;4.458;2023-03-19T01:09:03;11.70;99.90
25112;DHT22;13092;51.996;4.458;2023-03-19T01:11:32;11.60;99.90
25112;DHT22;13092;51.996;4.458;2023-03-19T01:14:00;11.60;99.90
25112;DHT22;13092;51.996;4.458;2023-03-19T01:16:30;11.70;99.90
25112;DHT22;13092;51.996;4.458;2023-03-19T01:18:59;11.50;99.90
25112;DHT22;13092;51.996;4.458;2023-03-19T01:21:37;11.50;99.90
25112;DHT22;13092;51.996;4.458;2023-03-19T01:24:05;11.40;99.90
25112;DHT22;13092;51.996;4.458;2023-03-19T01:26:36;11.40;99.90
25112;DHT22;13092;51.996;4.458;2023-03-19T01:29:04;11.30;99.90
25112;DHT22;13092;51.996;4.458;2023-03-19T01:31:34;11.30;99.90
25112;DHT22;13092;51.996;4.458;2023-03-19T01:34:03;11.30;99.90
25112;DHT22;13092;51.996;4.458;2023-03-19T01:36:31;11.20;99.90
25112;DHT22;13092;51.996;4.458;2023-03-19T01:39:02;11.40;99.90
25112;DHT22;13092;51.996;4.458;2023-03-19T01:41:31;11.20;99.90
25112;DHT22;13092;51.996;4.458;2023-03-19T01:43:59;11.30;99.90
25112;DHT22;13092;51.996;4.458;2023-03-19T01:46:29;11.20;99.90
25112;DHT22;13092;51.996;4.458;2023-03-19T01:49:01;11.20;99.90
25112;DHT22;13092;51.996;4.458;2023-03-19T01:51:38;11.10;99.90
25112;DHT22;13092;51.996;4.458;2023-03-19T01:54:12;11.10;99.90
25112;DHT22;13092;51.996;4.458;2023-03-19T01:56:42;11.20;99.90
25112;DHT22;13092;51.996;4.458;2023-03-19T01:59:16;11.00;99.90
25112;DHT22;13092;51.996;4.458;2023-03-19T02:01:49;11.00;99.90
25112;DHT22;13092;51.996;4.458;2023-03-19T02:04:22;10.90;99.90
25112;DHT22;13092;51.996;4.458;2023-03-19T02:06:52;10.90;99.90
25112;DHT22;13092;51.996;4.458;2023-03-19T02:09:22;10.80;99.90
25112;DHT22;13092;51.996;4.458;2023-03-19T02:11:54;10.80;99.90
25112;DHT22;13092;51.996;4.458;2023-03-19T02:14:23;10.70;99.90
25112;DHT22;13092;51.996;4.458;2023-03-19T02:16:55;10.70;99.90
25112;DHT22;13092;51.996;4.458;2023-03-19T02:19:30;10.60;99.90
25112;DHT22;13092;51.996;4.458;2023-03-19T02:22:01;10.60;99.90
25112;DHT22;13092;51.996;4.458;2023-03-19T02:24:33;10.60;99.90
25112;DHT22;13092;51.996;4.458;2023-03-19T02:27:04;10.50;99.90
25112;DHT22;13092;51.996;4.458;2023-03-19T02:29:37;10.50;99.90
25112;DHT22;13092;51.996;4.458;2023-03-19T02:32:05;10.50;99.90
25112;DHT22;13092;51.996;4.458;2023-03-19T02:34:36;10.50;99.90
25112;DHT22;13092;51.996;4.458;2023-03-19T02:37:09;10.50;99.90
25112;DHT22;13092;51.996;4.458;2023-03-19T02:39:48;10.50;99.90
25112;DHT22;13092;51.996;4.458;2023-03-19T02:42:21;10.50;99.90
25112;DHT22;13092;51.996;4.458;2023-03-19T02:44:51;10.50;99.90
25112;DHT22;13092;51.996;4.458;2023-03-19T02:47:19;10.50;99.90
25112;DHT22;13092;51.996;4.458;2023-03-19T02:49:47;10.50;99.90
25112;DHT22;13092;51.996;4.458;2023-03-19T02:52:23;10.50;99.90
25112;DHT22;13092;51.996;4.458;2023-03-19T02:54:51;10.50;99.90
25112;DHT22;13092;51.996;4.458;2023-03-19T02:57:21;10.50;99.90
25112;DHT22;13092;51.996;4.458;2023-03-19T02:59:50;10.50;99.90
25112;DHT22;13092;51.996;4.458;2023-03-19T03:02:22;10.40;99.90
25112;DHT22;13092;51.996;4.458;2023-03-19T03:04:50;10.50;99.90
25112;DHT22;13092;51.996;4.458;2023-03-19T03:07:21;10.60;99.90
25112;DHT22;13092;51.996;4.458;2023-03-19T03:09:49;10.50;99.90
25112;DHT22;13092;51.996;4.458;2023-03-19T03:12:18;10.60;99.90
25112;DHT22;13092;51.996;4.458;2023-03-19T03:14:48;10.50;99.90
25112;DHT22;13092;51.996;4.458;2023-03-19T03:17:16;10.40;99.90
25112;DHT22;13092;51.996;4.458;2023-03-19T03:19:47;10.50;99.90
25112;DHT22;13092;51.996;4.458;2023-03-19T03:22:16;10.50;99.90
25112;DHT22;13092;51.996;4.458;2023-03-19T03:24:44;10.60;99.90
25112;DHT22;13092;51.996;4.458;2023-03-19T03:27:15;10.50;99.90
25112;DHT22;13092;51.996;4.458;2023-03-19T03:29:44;10.60;99.90
25112;DHT22;13092;51.996;4.458;2023-03-19T03:32:14;10.60;99.90
25112;DHT22;13092;51.996;4.458;2023-03-19T03:34:43;10.60;99.90
25112;DHT22;13092;51.996;4.458;2023-03-19T03:37:12;10.50;99.90
25112;DHT22;13092;51.996;4.458;2023-03-19T03:39:40;10.60;99.90
25112;DHT22;13092;51.996;4.458;2023-03-19T03:42:09;10.50;99.90
25112;DHT22;13092;51.996;4.458;2023-03-19T03:44:37;10.60;99.90
25112;DHT22;13092;51.996;4.458;2023-03-19T03:47:05;10.60;99.90
25112;DHT22;13092;51.996;4.458;2023-03-19T03:49:35;10.60;99.90
25112;DHT22;13092;51.996;4.458;2023-03-19T03:52:04;10.60;99.90
25112;DHT22;13092;51.996;4.458;2023-03-19T03:54:32;10.60;99.90
25112;DHT22;13092;51.996;4.458;2023-03-19T03:57:00;10.60;99.90
25112;DHT22;13092;51.996;4.458;2023-03-19T03:59:29;10.60;99.90
25112;DHT22;13092;51.996;4.458;2023-03-19T04:01:57;10.60;99.90
25112;DHT22;13092;51.996;4.458;2023-03-19T04:04:28;10.60;99.90
25112;DHT22;13092;51.996;4.458;2023-03-19T04:06:58;10.70;99.90
25112;DHT22;13092;51.996;4.458;2023-03-19T04:09:26;10.70;99.90
25112;DHT22;13092;51.996;4.458;2023-03-19T04:11:54;10.50;99.90
25112;DHT22;13092;51.996;4.458;2023-03-19T04:14:22;10.40;99.90
25112;DHT22;13092;51.996;4.458;2023-03-19T04:16:58;10.60;99.90
25112;DHT22;13092;51.996;4.458;2023-03-19T04:19:27;10.50;99.90
25112;DHT22;13092;51.996;4.458;2023-03-19T04:21:55;10.50;99.90
25112;DHT22;13092;51.996;4.458;2023-03-19T04:24:24;10.60;99.90
25112;DHT22;13092;51.996;4.458;2023-03-19T04:26:53;10.50;99.90
25112;DHT22;13092;51.996;4.458;2023-03-19T04:29:22;10.50;99.90
25112;DHT22;13092;51.996;4.458;2023-03-19T04:31:50;10.40;99.90
25112;DHT22;13092;51.996;4.458;2023-03-19T04:34:19;10.30;99.90
25112;DHT22;13092;51.996;4.458;2023-03-19T04:36:55;10.30;99.90
25112;DHT22;13092;51.996;4.458;2023-03-19T04:39:26;10.20;99.90
25112;DHT22;13092;51.996;4.458;2023-03-19T04:41:56;10.20;99.90
25112;DHT22;13092;51.996;4.458;2023-03-19T04:44:27;10.10;99.90
25112;DHT22;13092;51.996;4.458;2023-03-19T04:46:55;10.10;99.90
25112;DHT22;13092;51.996;4.458;2023-03-19T04:49:23;10.10;99.90
25112;DHT22;13092;51.996;4.458;2023-03-19T04:51:54;10.10;99.90
25112;DHT22;13092;51.996;4.458;2023-03-19T04:54:25;10.20;99.90
25112;DHT22;13092;51.996;4.458;2023-03-19T04:56:54;10.10;99.90
25112;DHT22;13092;51.996;4.458;2023-03-19T04:59:22;10.10;99.90
25112;DHT22;13092;51.996;4.458;2023-03-19T05:01:50;10.10;99.90
25112;DHT22;13092;51.996;4.458;2023-03-19T05:04:18;10.30;99.90
25112;DHT22;13092;51.996;4.458;2023-03-19T05:06:46;10.10;99.90
25112;DHT22;13092;51.996;4.458;2023-03-19T05:09:14;10.10;99.90
25112;DHT22;13092;51.996;4.458;2023-03-19T05:11:44;10.10;99.90
25112;DHT22;13092;51.996;4.458;2023-03-19T05:14:15;10.20;99.90
25112;DHT22;13092;51.996;4.458;2023-03-19T05:16:43;10.10;99.90
25112;DHT22;13092;51.996;4.458;2023-03-19T05:19:14;10.10;99.90
25112;DHT22;13092;51.996;4.458;2023-03-19T05:21:43;10.10;99.90
25112;DHT22;13092;51.996;4.458;2023-03-19T05:24:11;10.10;99.90
25112;DHT22;13092;51.996;4.458;2023-03-19T05:26:39;10.00;99.90
25112;DHT22;13092;51.996;4.458;2023-03-19T05:29:09;10.10;99.90
25112;DHT22;13092;51.996;4.458;2023-03-19T05:31:37;10.10;99.90
25112;DHT22;13092;51.996;4.458;2023-03-19T05:34:06;10.10;99.90
25112;DHT22;13092;51.996;4.458;2023-03-19T05:36:37;10.10;99.90
25112;DHT22;13092;51.996;4.458;2023-03-19T05:39:05;10.20;99.90
25112;DHT22;13092;51.996;4.458;2023-03-19T05:41:34;10.00;99.90
25112;DHT22;13092;51.996;4.458;2023-03-19T05:44:07;9.90;99.90
25112;DHT22;13092;51.996;4.458;2023-03-19T05:46:36;9.80;99.90
25112;DHT22;13092;51.996;4.458;2023-03-19T05:49:04;9.90;99.90
25112;DHT22;13092;51.996;4.458;2023-03-19T05:51:35;9.80;99.90
25112;DHT22;13092;51.996;4.458;2023-03-19T05:54:07;9.70;99.90
25112;DHT22;13092;51.996;4.458;2023-03-19T05:56:35;9.70;99.90
25112;DHT22;13092;51.996;4.458;2023-03-19T05:59:03;9.70;99.90
25112;DHT22;13092;51.996;4.458;2023-03-19T06:01:31;9.80;99.90
25112;DHT22;13092;51.996;4.458;2023-03-19T06:04:00;9.80;99.90
25112;DHT22;13092;51.996;4.458;2023-03-19T06:06:31;9.80;99.90
25112;DHT22;13092;51.996;4.458;2023-03-19T06:08:59;9.80;99.90
25112;DHT22;13092;51.996;4.458;2023-03-19T06:11:28;9.90;99.90
25112;DHT22;13092;51.996;4.458;2023-03-19T06:13:56;9.90;99.90
25112;DHT22;13092;51.996;4.458;2023-03-19T06:16:24;10.20;99.90
25112;DHT22;13092;51.996;4.458;2023-03-19T06:18:52;10.00;99.90
25112;DHT22;13092;51.996;4.458;2023-03-19T06:21:34;10.00;99.90
25112;DHT22;13092;51.996;4.458;2023-03-19T06:24:02;10.20;99.90
25112;DHT22;13092;51.996;4.458;2023-03-19T06:26:31;10.00;99.90
25112;DHT22;13092;51.996;4.458;2023-03-19T06:29:00;10.10;99.90
25112;DHT22;13092;51.996;4.458;2023-03-19T06:31:32;10.10;99.90
25112;DHT22;13092;51.996;4.458;2023-03-19T06:34:00;10.10;99.90
25112;DHT22;13092;51.996;4.458;2023-03-19T06:36:28;10.10;99.90
25112;DHT22;13092;51.996;4.458;2023-03-19T06:38:58;10.10;99.90
25112;DHT22;13092;51.996;4.458;2023-03-19T06:41:27;10.10;99.90
25112;DHT22;13092;51.996;4.458;2023-03-19T06:43:55;10.20;99.90
25112;DHT22;13092;51.996;4.458;2023-03-19T06:46:23;10.20;99.90
25112;DHT22;13092;51.996;4.458;2023-03-19T06:48:51;10.30;99.90
25112;DHT22;13092;51.996;4.458;2023-03-19T06:51:23;10.20;99.90
25112;DHT22;13092;51.996;4.458;2023-03-19T06:53:53;10.30;99.90
25112;DHT22;13092;51.996;4.458;2023-03-19T06:56:24;10.30;99.90
25112;DHT22;13092;51.996;4.458;2023-03-19T06:58:52;10.40;99.90
25112;DHT22;13092;51.996;4.458;2023-03-19T07:01:20;10.40;99.90
25112;DHT22;13092;51.996;4.458;2023-03-19T07:03:49;10.40;99.90
25112;DHT22;13092;51.996;4.458;2023-03-19T07:06:17;10.40;99.90
25112;DHT22;13092;51.996;4.458;2023-03-19T07:08:45;10.50;99.90
25112;DHT22;13092;51.996;4.458;2023-03-19T07:11:15;10.50;99.90
25112;DHT22;13092;51.996;4.458;2023-03-19T07:13:52;10.50;99.90
25112;DHT22;13092;51.996;4.458;2023-03-19T07:16:23;10.50;99.90
25112;DHT22;13092;51.996;4.458;2023-03-19T07:18:51;10.50;99.90
25112;DHT22;13092;51.996;4.458;2023-03-19T07:21:22;10.50;99.90
25112;DHT22;13092;51.996;4.458;2023-03-19T07:23:50;10.60;99.90
25112;DHT22;13092;51.996;4.458;2023-03-19T07:26:19;10.60;99.90
25112;DHT22;13092;51.996;4.458;2023-03-19T07:28:51;10.50;99.90
25112;DHT22;13092;51.996;4.458;2023-03-19T07:31:21;10.60;99.90
25112;DHT22;13092;51.996;4.458;2023-03-19T07:33:49;10.60;99.90
25112;DHT22;13092;51.996;4.458;2023-03-19T07:36:18;10.70;99.90
25112;DHT22;13092;51.996;4.458;2023-03-19T07:38:47;10.70;99.90
25112;DHT22;13092;51.996;4.458;2023-03-19T07:41:16;10.80;99.90
25112;DHT22;13092;51.996;4.458;2023-03-19T07:43:44;10.90;99.90
25112;DHT22;13092;51.996;4.458;2023-03-19T07:46:14;10.80;99.90
25112;DHT22;13092;51.996;4.458;2023-03-19T07:48:44;10.80;99.90
25112;DHT22;13092;51.996;4.458;2023-03-19T07:51:12;10.80;99.90
25112;DHT22;13092;51.996;4.458;2023-03-19T07:53:41;10.80;99.90
25112;DHT22;13092;51.996;4.458;2023-03-19T07:56:11;10.90;99.90
25112;DHT22;13092;51.996;4.458;2023-03-19T07:58:42;11.00;99.90
25112;DHT22;13092;51.996;4.458;2023-03-19T08:01:15;10.80;99.90
25112;DHT22;13092;51.996;4.458;2023-03-19T08:03:43;11.00;99.90
25112;DHT22;13092;51.996;4.458;2023-03-19T08:06:11;11.10;99.90
25112;DHT22;13092;51.996;4.458;2023-03-19T08:08:39;11.00;99.90
25112;DHT22;13092;51.996;4.458;2023-03-19T08:11:07;11.00;99.90
25112;DHT22;13092;51.996;4.458;2023-03-19T08:13:39;11.00;99.90
25112;DHT22;13092;51.996;4.458;2023-03-19T08:16:08;11.10;99.90
25112;DHT22;13092;51.996;4.458;2023-03-19T08:18:37;11.10;99.90
25112;DHT22;13092;51.996;4.458;2023-03-19T08:21:05;11.00;99.90
25112;DHT22;13092;51.996;4.458;2023-03-19T08:23:34;11.00;99.90
25112;DHT22;13092;51.996;4.458;2023-03-19T08:26:02;11.00;99.90
25112;DHT22;13092;51.996;4.458;2023-03-19T08:28:30;11.00;99.90
25112;DHT22;13092;51.996;4.458;2023-03-19T08:31:06;11.00;99.90
25112;DHT22;13092;51.996;4.458;2023-03-19T08:33:34;11.00;99.90
25112;DHT22;13092;51.996;4.458;2023-03-19T08:36:05;11.00;99.90
25112;DHT22;13092;51.996;4.458;2023-03-19T08:38:37;10.90;99.90
25112;DHT22;13092;51.996;4.458;2023-03-19T08:41:07;10.90;99.90
25112;DHT22;13092;51.996;4.458;2023-03-19T08:43:36;11.00;99.90
25112;DHT22;13092;51.996;4.458;2023-03-19T08:46:07;11.10;99.90
25112;DHT22;13092;51.996;4.458;2023-03-19T08:48:39;11.10;99.90
25112;DHT22;13092;51.996;4.458;2023-03-19T08:51:11;11.10;99.90
25112;DHT22;13092;51.996;4.458;2023-03-19T08:53:42;11.20;99.90
25112;DHT22;13092;51.996;4.458;2023-03-19T08:56:10;11.30;99.90
25112;DHT22;13092;51.996;4.458;2023-03-19T08:58:38;11.30;99.90
25112;DHT22;13092;51.996;4.458;2023-03-19T09:01:12;11.30;99.90
25112;DHT22;13092;51.996;4.458;2023-03-19T09:03:42;11.40;99.90
25112;DHT22;13092;51.996;4.458;2023-03-19T09:06:15;11.40;99.90
25112;DHT22;13092;51.996;4.458;2023-03-19T09:08:44;11.40;99.90
25112;DHT22;13092;51.996;4.458;2023-03-19T09:11:12;11.40;99.90
25112;DHT22;13092;51.996;4.458;2023-03-19T09:13:42;11.50;99.90
25112;DHT22;13092;51.996;4.458;2023-03-19T09:16:11;11.50;99.90
25112;DHT22;13092;51.996;4.458;2023-03-19T09:18:39;11.50;99.90
25112;DHT22;13092;51.996;4.458;2023-03-19T09:21:08;11.50;99.90
25112;DHT22;13092;51.996;4.458;2023-03-19T09:23:44;11.60;99.90
25112;DHT22;13092;51.996;4.458;2023-03-19T09:26:12;11.70;99.90
25112;DHT22;13092;51.996;4.458;2023-03-19T09:28:41;11.70;99.90
25112;DHT22;13092;51.996;4.458;2023-03-19T09:31:09;11.70;99.90
25112;DHT22;13092;51.996;4.458;2023-03-19T09:33:40;11.70;99.90
25112;DHT22;13092;51.996;4.458;2023-03-19T09:36:08;11.80;99.90
25112;DHT22;13092;51.996;4.458;2023-03-19T09:38:37;11.70;99.90
25112;DHT22;13092;51.996;4.458;2023-03-19T09:41:10;11.70;99.90
25112;DHT22;13092;51.996;4.458;2023-03-19T09:43:57;11.60;99.90
25112;DHT22;13092;51.996;4.458;2023-03-19T09:46:31;11.70;99.90
25112;DHT22;13092;51.996;4.458;2023-03-19T09:49:05;11.80;99.90
25112;DHT22;13092;51.996;4.458;2023-03-19T09:51:42;11.70;99.90
25112;DHT22;13092;51.996;4.458;2023-03-19T09:54:34;11.70;99.90
25112;DHT22;13092;51.996;4.458;2023-03-19T09:57:09;11.60;99.90
25112;DHT22;13092;51.996;4.458;2023-03-19T09:59:40;11.60;99.90
25112;DHT22;13092;51.996;4.458;2023-03-19T10:02:35;11.60;99.90
25112;DHT22;13092;51.996;4.458;2023-03-19T10:05:14;11.50;99.90
25112;DHT22;13092;51.996;4.458;2023-03-19T10:07:58;11.50;99.90
25112;DHT22;13092;51.996;4.458;2023-03-19T10:10:48;11.50;99.90
25112;DHT22;13092;51.996;4.458;2023-03-19T10:13:36;11.70;99.90
25112;DHT22;13092;51.996;4.458;2023-03-19T10:16:11;11.60;99.90
25112;DHT22;13092;51.996;4.458;2023-03-19T10:18:44;11.70;99.90
25112;DHT22;13092;51.996;4.458;2023-03-19T10:21:21;11.60;99.90
25112;DHT22;13092;51.996;4.458;2023-03-19T10:23:54;11.70;99.90
25112;DHT22;13092;51.996;4.458;2023-03-19T10:26:28;11.80;99.90
25112;DHT22;13092;51.996;4.458;2023-03-19T10:29:03;11.70;99.90
25112;DHT22;13092;51.996;4.458;2023-03-19T10:31:41;11.80;99.90
25112;DHT22;13092;51.996;4.458;2023-03-19T10:34:28;11.90;99.90
25112;DHT22;13092;51.996;4.458;2023-03-19T10:37:00;11.90;99.90
25112;DHT22;13092;51.996;4.458;2023-03-19T10:39:32;11.90;99.90
25112;DHT22;13092;51.996;4.458;2023-03-19T10:42:18;12.00;99.90
25112;DHT22;13092;51.996;4.458;2023-03-19T10:44:52;12.00;99.90
25112;DHT22;13092;51.996;4.458;2023-03-19T10:47:25;12.00;99.90
25112;DHT22;13092;51.996;4.458;2023-03-19T10:49:55;12.00;99.90
25112;DHT22;13092;51.996;4.458;2023-03-19T10:52:27;12.10;99.90
25112;DHT22;13092;51.996;4.458;2023-03-19T10:55:02;12.10;99.90
25112;DHT22;13092;51.996;4.458;2023-03-19T10:57:32;12.10;99.90
25112;DHT22;13092;51.996;4.458;2023-03-19T11:00:05;12.20;99.90
25112;DHT22;13092;51.996;4.458;2023-03-19T11:02:36;12.20;99.90
25112;DHT22;13092;51.996;4.458;2023-03-19T11:05:23;12.30;99.90
25112;DHT22;13092;51.996;4.458;2023-03-19T11:07:55;12.40;99.90
25112;DHT22;13092;51.996;4.458;2023-03-19T11:10:26;12.50;99.90
25112;DHT22;13092;51.996;4.458;2023-03-19T11:12:56;12.60;99.90
25112;DHT22;13092;51.996;4.458;2023-03-19T11:15:36;12.70;99.90
25112;DHT22;13092;51.996;4.458;2023-03-19T11:18:07;12.70;99.90
25112;DHT22;13092;51.996;4.458;2023-03-19T11:20:36;12.80;99.90
25112;DHT22;13092;51.996;4.458;2023-03-19T11:23:10;12.90;99.90
25112;DHT22;13092;51.996;4.458;2023-03-19T11:25:40;13.00;99.90
25112;DHT22;13092;51.996;4.458;2023-03-19T11:28:14;13.00;99.90
25112;DHT22;13092;51.996;4.458;2023-03-19T11:30:54;13.00;99.90
25112;DHT22;13092;51.996;4.458;2023-03-19T11:33:51;13.00;99.90
25112;DHT22;13092;51.996;4.458;2023-03-19T11:36:27;13.10;99.90
25112;DHT22;13092;51.996;4.458;2023-03-19T11:39:14;13.20;99.90
25112;DHT22;13092;51.996;4.458;2023-03-19T11:41:53;13.30;99.90
25112;DHT22;13092;51.996;4.458;2023-03-19T11:44:27;13.30;99.90
25112;DHT22;13092;51.996;4.458;2023-03-19T11:47:03;13.50;99.90
25112;DHT22;13092;51.996;4.458;2023-03-19T11:50:08;13.50;99.90
25112;DHT22;13092;51.996;4.458;2023-03-19T11:53:00;13.50;99.90
25112;DHT22;13092;51.996;4.458;2023-03-19T11:55:33;13.50;99.90
25112;DHT22;13092;51.996;4.458;2023-03-19T12:01:08;13.60;99.90
25112;DHT22;13092;51.996;4.458;2023-03-19T12:04:18;13.60;99.90
25112;DHT22;13092;51.996;4.458;2023-03-19T12:06:59;13.70;99.90
25112;DHT22;13092;51.996;4.458;2023-03-19T12:09:38;13.70;99.90
25112;DHT22;13092;51.996;4.458;2023-03-19T12:12:16;13.80;99.90
25112;DHT22;13092;51.996;4.458;2023-03-19T12:14:55;13.70;99.90
25112;DHT22;13092;51.996;4.458;2023-03-19T12:17:37;13.80;99.90
25112;DHT22;13092;51.996;4.458;2023-03-19T12:20:27;13.80;99.90
25112;DHT22;13092;51.996;4.458;2023-03-19T12:23:05;13.90;99.90
25112;DHT22;13092;51.996;4.458;2023-03-19T12:25:51;14.00;99.90
25112;DHT22;13092;51.996;4.458;2023-03-19T12:28:26;14.10;99.90
25112;DHT22;13092;51.996;4.458;2023-03-19T12:31:09;14.20;99.90
25112;DHT22;13092;51.996;4.458;2023-03-19T12:33:44;14.30;99.90
25112;DHT22;13092;51.996;4.458;2023-03-19T12:36:21;14.30;99.90
25112;DHT22;13092;51.996;4.458;2023-03-19T12:38:53;14.20;99.90
25112;DHT22;13092;51.996;4.458;2023-03-19T12:41:24;14.20;99.90
25112;DHT22;13092;51.996;4.458;2023-03-19T12:43:57;14.30;99.90
25112;DHT22;13092;51.996;4.458;2023-03-19T12:46:30;14.20;99.90
25112;DHT22;13092;51.996;4.458;2023-03-19T12:49:04;14.10;99.90
25112;DHT22;13092;51.996;4.458;2023-03-19T12:51:37;14.10;99.90
25112;DHT22;13092;51.996;4.458;2023-03-19T12:54:10;14.10;99.90
25112;DHT22;13092;51.996;4.458;2023-03-19T12:56:45;14.00;99.90
25112;DHT22;13092;51.996;4.458;2023-03-19T12:59:23;14.10;99.90
25112;DHT22;13092;51.996;4.458;2023-03-19T13:02:01;14.30;99.90
25112;DHT22;13092;51.996;4.458;2023-03-19T13:04:34;14.30;99.90
25112;DHT22;13092;51.996;4.458;2023-03-19T13:07:10;14.40;99.90
25112;DHT22;13092;51.996;4.458;2023-03-19T13:09:47;14.40;99.90
25112;DHT22;13092;51.996;4.458;2023-03-19T13:12:22;14.40;99.90
25112;DHT22;13092;51.996;4.458;2023-03-19T13:14:56;14.20;99.90
25112;DHT22;13092;51.996;4.458;2023-03-19T13:17:32;14.20;99.90
25112;DHT22;13092;51.996;4.458;2023-03-19T13:20:13;14.10;99.90
25112;DHT22;13092;51.996;4.458;2023-03-19T13:22:50;14.00;99.90
25112;DHT22;13092;51.996;4.458;2023-03-19T13:25:29;13.90;99.90
25112;DHT22;13092;51.996;4.458;2023-03-19T13:27:58;13.90;99.90
25112;DHT22;13092;51.996;4.458;2023-03-19T13:30:26;13.80;99.90
25112;DHT22;13092;51.996;4.458;2023-03-19T13:33:04;13.60;99.90
25112;DHT22;13092;51.996;4.458;2023-03-19T13:35:42;13.70;99.90
25112;DHT22;13092;51.996;4.458;2023-03-19T13:38:18;13.70;99.90
25112;DHT22;13092;51.996;4.458;2023-03-19T13:40:48;13.70;99.90
25112;DHT22;13092;51.996;4.458;2023-03-19T13:43:41;13.70;99.90
25112;DHT22;13092;51.996;4.458;2023-03-19T13:46:38;13.80;99.90
25112;DHT22;13092;51.996;4.458;2023-03-19T13:49:25;13.80;99.90
25112;DHT22;13092;51.996;4.458;2023-03-19T13:51:57;13.60;99.90
25112;DHT22;13092;51.996;4.458;2023-03-19T13:54:45;13.60;99.90
25112;DHT22;13092;51.996;4.458;2023-03-19T13:57:20;13.60;99.90
25112;DHT22;13092;51.996;4.458;2023-03-19T13:59:49;13.50;99.90
25112;DHT22;13092;51.996;4.458;2023-03-19T14:02:45;13.30;99.90
25112;DHT22;13092;51.996;4.458;2023-03-19T14:05:18;13.20;99.90
25112;DHT22;13092;51.996;4.458;2023-03-19T14:07:52;13.20;99.90
25112;DHT22;13092;51.996;4.458;2023-03-19T14:10:24;13.10;99.90
25112;DHT22;13092;51.996;4.458;2023-03-19T14:13:06;13.00;99.90
25112;DHT22;13092;51.996;4.458;2023-03-19T14:15:40;12.80;99.90
25112;DHT22;13092;51.996;4.458;2023-03-19T14:18:16;12.70;99.90
25112;DHT22;13092;51.996;4.458;2023-03-19T14:20:50;12.60;99.90
25112;DHT22;13092;51.996;4.458;2023-03-19T14:23:26;12.50;99.90
25112;DHT22;13092;51.996;4.458;2023-03-19T14:26:14;12.50;99.90
25112;DHT22;13092;51.996;4.458;2023-03-19T14:28:54;12.50;99.90
25112;DHT22;13092;51.996;4.458;2023-03-19T14:31:29;12.50;99.90
25112;DHT22;13092;51.996;4.458;2023-03-19T14:34:03;12.50;99.90
25112;DHT22;13092;51.996;4.458;2023-03-19T14:36:35;12.50;99.90
25112;DHT22;13092;51.996;4.458;2023-03-19T14:39:11;12.50;99.90
25112;DHT22;13092;51.996;4.458;2023-03-19T14:41:49;12.40;99.90
25112;DHT22;13092;51.996;4.458;2023-03-19T14:47:24;12.30;99.90
25112;DHT22;13092;51.996;4.458;2023-03-19T14:50:14;12.30;99.90
25112;DHT22;13092;51.996;4.458;2023-03-19T14:52:51;12.30;99.90
25112;DHT22;13092;51.996;4.458;2023-03-19T14:55:32;12.30;99.90
25112;DHT22;13092;51.996;4.458;2023-03-19T14:58:07;12.20;99.90
25112;DHT22;13092;51.996;4.458;2023-03-19T15:00:43;12.10;99.90
25112;DHT22;13092;51.996;4.458;2023-03-19T15:03:19;12.10;99.90
25112;DHT22;13092;51.996;4.458;2023-03-19T15:05:48;12.00;99.90
25112;DHT22;13092;51.996;4.458;2023-03-19T15:08:21;11.90;99.90
25112;DHT22;13092;51.996;4.458;2023-03-19T15:10:59;11.80;99.90
25112;DHT22;13092;51.996;4.458;2023-03-19T15:13:40;11.80;99.90
25112;DHT22;13092;51.996;4.458;2023-03-19T15:16:20;11.70;99.90
25112;DHT22;13092;51.996;4.458;2023-03-19T15:18:51;11.70;99.90
25112;DHT22;13092;51.996;4.458;2023-03-19T15:21:21;11.70;99.90
25112;DHT22;13092;51.996;4.458;2023-03-19T15:23:49;11.60;99.90
25112;DHT22;13092;51.996;4.458;2023-03-19T15:26:32;11.70;99.90
25112;DHT22;13092;51.996;4.458;2023-03-19T15:29:02;11.60;99.90
25112;DHT22;13092;51.996;4.458;2023-03-19T15:31:42;11.60;99.90
25112;DHT22;13092;51.996;4.458;2023-03-19T15:34:29;11.70;99.90
25112;DHT22;13092;51.996;4.458;2023-03-19T15:37:01;11.70;99.90
25112;DHT22;13092;51.996;4.458;2023-03-19T15:39:34;11.70;99.90
25112;DHT22;13092;51.996;4.458;2023-03-19T15:42:04;11.70;99.90
25112;DHT22;13092;51.996;4.458;2023-03-19T15:44:37;11.70;99.90
25112;DHT22;13092;51.996;4.458;2023-03-19T15:47:12;11.80;99.90
25112;DHT22;13092;51.996;4.458;2023-03-19T15:49:46;11.80;99.90
25112;DHT22;13092;51.996;4.458;2023-03-19T15:52:18;11.90;99.90
25112;DHT22;13092;51.996;4.458;2023-03-19T15:54:47;12.00;99.90
25112;DHT22;13092;51.996;4.458;2023-03-19T15:57:16;12.00;99.90
25112;DHT22;13092;51.996;4.458;2023-03-19T15:59:46;11.90;99.90
25112;DHT22;13092;51.996;4.458;2023-03-19T16:02:22;11.90;99.90
25112;DHT22;13092;51.996;4.458;2023-03-19T16:04:52;11.70;99.90
25112;DHT22;13092;51.996;4.458;2023-03-19T16:07:42;11.70;99.90
25112;DHT22;13092;51.996;4.458;2023-03-19T16:10:33;11.40;99.90
25112;DHT22;13092;51.996;4.458;2023-03-19T16:13:03;11.30;99.90